createdAt,value
2022-08-24T00:02:06.238Z,26.44
2022-08-24T00:05:12.713Z,26.35
2022-08-24T00:08:17.833Z,26.33
2022-08-24T00:11:20.399Z,26.37
2022-08-24T00:14:22.527Z,26.40
2022-08-24T00:17:25.531Z,26.41
2022-08-24T00:20:27.916Z,26.26
2022-08-24T00:23:31.143Z,26.32
2022-08-24T00:26:33.455Z,26.28
2022-08-24T00:29:36.094Z,26.25
2022-08-24T00:32:38.282Z,26.32
2022-08-24T00:35:40.480Z,26.33
2022-08-24T00:38:42.648Z,26.33
2022-08-24T00:41:47.164Z,26.38
2022-08-24T00:44:49.357Z,26.39
2022-08-24T00:47:59.458Z,26.45
2022-08-24T00:51:09.168Z,26.46
2022-08-24T00:54:16.995Z,26.46
2022-08-24T00:57:22.971Z,26.48
2022-08-24T01:00:31.645Z,26.43
2022-08-24T01:03:36.112Z,26.43
2022-08-24T01:06:38.545Z,26.42
2022-08-24T01:09:41.490Z,26.42
2022-08-24T01:13:00.114Z,26.41
2022-08-24T01:16:07.323Z,26.28
2022-08-24T01:19:38.306Z,26.43
2022-08-24T01:23:06.275Z,26.45
2022-08-24T01:26:13.154Z,26.44
2022-08-24T01:29:29.116Z,26.44
2022-08-24T01:32:33.187Z,26.45
2022-08-24T01:35:38.912Z,26.44
2022-08-24T01:38:41.625Z,26.43
2022-08-24T01:41:43.676Z,26.43
2022-08-24T01:44:46.929Z,26.42
2022-08-24T01:47:49.255Z,26.39
2022-08-24T01:50:52.815Z,26.46
2022-08-24T01:53:56.863Z,26.46
2022-08-24T01:56:59.778Z,26.45
2022-08-24T02:00:02.657Z,26.41
2022-08-24T02:03:15.148Z,26.44
2022-08-24T02:06:22.513Z,26.43
2022-08-24T02:09:25.036Z,26.45
2022-08-24T02:12:36.463Z,26.44
2022-08-24T02:15:42.673Z,26.43
2022-08-24T02:18:47.083Z,26.42
2022-08-24T02:21:49.445Z,26.42
2022-08-24T02:24:51.838Z,26.40
2022-08-24T02:27:53.899Z,26.42
2022-08-24T02:30:56.427Z,26.40
2022-08-24T02:33:59.006Z,26.41
2022-08-24T02:37:01.300Z,26.42
2022-08-24T02:40:05.959Z,26.41
2022-08-24T02:43:08.062Z,26.39
2022-08-24T02:46:18.309Z,26.38
2022-08-24T02:49:21.840Z,26.40
2022-08-24T02:52:25.109Z,26.39
2022-08-24T02:55:27.327Z,26.38
2022-08-24T02:58:29.484Z,26.35
2022-08-24T03:01:32.877Z,26.36
2022-08-24T03:04:35.150Z,26.37
2022-08-24T03:07:39.257Z,26.33
2022-08-24T03:10:41.709Z,26.34
2022-08-24T03:13:44.017Z,26.31
2022-08-24T03:16:47.238Z,26.31
2022-08-24T03:19:49.388Z,26.33
2022-08-24T03:22:52.636Z,26.33
2022-08-24T03:25:56.545Z,26.32
2022-08-24T03:28:59.031Z,26.33
2022-08-24T03:32:02.835Z,26.24
2022-08-24T03:35:05.766Z,26.32
2022-08-24T03:38:07.950Z,26.30
2022-08-24T03:41:11.289Z,26.27
2022-08-24T03:44:13.546Z,26.30
2022-08-24T03:47:15.678Z,26.28
2022-08-24T03:50:18.940Z,26.30
2022-08-24T03:53:21.559Z,26.23
2022-08-24T03:56:23.934Z,26.22
2022-08-24T03:59:26.234Z,26.22
2022-08-24T04:02:33.118Z,26.21
2022-08-24T04:05:37.179Z,26.28
2022-08-24T04:08:41.489Z,26.30
2022-08-24T04:11:45.639Z,26.31
2022-08-24T04:14:52.662Z,26.33
2022-08-24T04:17:55.026Z,26.34
2022-08-24T04:20:57.527Z,26.35
2022-08-24T04:24:01.402Z,26.37
2022-08-24T04:27:03.836Z,26.36
2022-08-24T04:30:08.104Z,26.35
2022-08-24T04:33:25.200Z,26.31
2022-08-24T04:36:27.373Z,26.39
2022-08-24T04:39:31.055Z,26.42
2022-08-24T04:42:37.561Z,26.39
2022-08-24T04:45:43.716Z,26.44
2022-08-24T04:48:47.980Z,26.44
2022-08-24T04:51:51.576Z,26.43
2022-08-24T04:54:53.897Z,26.44
2022-08-24T04:57:58.609Z,26.45
2022-08-24T05:01:01.300Z,26.43
2022-08-24T05:04:05.791Z,26.43
2022-08-24T05:07:08.536Z,26.37
2022-08-24T05:10:11.508Z,26.41
2022-08-24T05:13:15.322Z,26.38
2022-08-24T05:16:18.185Z,26.48
2022-08-24T05:19:21.365Z,26.47
2022-08-24T05:22:23.611Z,26.51
2022-08-24T05:25:29.343Z,26.51
2022-08-24T05:28:33.776Z,26.45
2022-08-24T05:31:36.041Z,26.48
2022-08-24T05:34:43.586Z,26.48
2022-08-24T05:37:45.918Z,26.47
2022-08-24T05:40:51.366Z,26.50
2022-08-24T05:43:57.646Z,26.50
2022-08-24T05:47:01.391Z,26.49
2022-08-24T05:50:04.848Z,26.49
2022-08-24T05:53:06.879Z,26.53
2022-08-24T05:56:13.446Z,26.56
2022-08-24T05:59:18.099Z,26.55
2022-08-24T06:02:21.228Z,26.51
2022-08-24T06:05:24.137Z,26.49
2022-08-24T06:08:26.574Z,26.52
2022-08-24T06:11:32.749Z,26.51
2022-08-24T06:14:36.701Z,26.53
2022-08-24T06:17:40.517Z,26.55
2022-08-24T06:20:43.298Z,26.52
2022-08-24T06:23:49.674Z,26.62
2022-08-24T06:27:11.623Z,26.58
2022-08-24T06:30:14.150Z,26.63
2022-08-24T06:33:39.938Z,26.65
2022-08-24T06:36:42.393Z,26.69
2022-08-24T06:39:44.886Z,26.69
2022-08-24T06:42:48.694Z,26.74
2022-08-24T06:46:20.839Z,26.76
2022-08-24T06:49:25.883Z,26.77
2022-08-24T06:52:28.636Z,26.73
2022-08-24T06:55:31.597Z,26.83
2022-08-24T06:58:34.937Z,26.88
2022-08-24T07:01:40.785Z,26.88
2022-08-24T07:04:43.122Z,26.87
2022-08-24T07:08:08.768Z,26.92
2022-08-24T07:11:17.813Z,26.98
2022-08-24T07:14:20.398Z,27.02
2022-08-24T07:17:23.718Z,27.05
2022-08-24T07:20:26.051Z,27.04
2022-08-24T07:23:44.630Z,27.09
2022-08-24T07:26:49.001Z,27.11
2022-08-24T07:30:16.166Z,27.20
2022-08-24T07:33:17.263Z,27.19
2022-08-24T07:36:22.467Z,27.25
2022-08-24T07:39:25.669Z,27.30
2022-08-24T07:42:32.015Z,27.31
2022-08-24T07:45:35.895Z,27.31
2022-08-24T07:48:38.321Z,27.34
2022-08-24T07:51:44.856Z,27.42
2022-08-24T07:54:49.790Z,27.43
2022-08-24T07:57:52.343Z,27.44
2022-08-24T08:00:56.136Z,27.47
2022-08-24T08:03:58.385Z,27.50
2022-08-24T08:07:01.914Z,27.54
2022-08-24T08:10:08.316Z,27.54
2022-08-24T08:13:12.062Z,27.60
2022-08-24T08:16:14.233Z,27.68
2022-08-24T08:19:17.507Z,27.70
2022-08-24T08:22:38.571Z,27.76
2022-08-24T08:26:18.317Z,27.82
2022-08-24T08:29:34.312Z,27.86
2022-08-24T08:32:37.191Z,27.82
2022-08-24T08:35:40.707Z,27.84
2022-08-24T08:38:43.194Z,27.90
2022-08-24T08:42:06.488Z,27.95
2022-08-24T08:45:27.662Z,27.97
2022-08-24T08:49:15.519Z,27.96
2022-08-24T08:52:55.045Z,27.96
2022-08-24T08:56:15.414Z,27.99
2022-08-24T08:59:32.881Z,28.00
2022-08-24T09:03:00.074Z,28.04
2022-08-24T09:06:24.651Z,28.11
2022-08-24T09:09:51.933Z,28.10
2022-08-24T09:13:06.151Z,28.19
2022-08-24T09:16:18.176Z,28.23
2022-08-24T09:19:48.834Z,28.19
2022-08-24T09:23:05.062Z,28.23
2022-08-24T09:26:27.093Z,28.25
2022-08-24T09:29:46.113Z,28.28
2022-08-24T09:33:09.258Z,28.30
2022-08-24T09:36:36.976Z,28.29
2022-08-24T09:39:54.381Z,28.42
2022-08-24T09:43:18.006Z,28.47
2022-08-24T09:46:28.863Z,28.55
2022-08-24T09:49:52.832Z,28.57
2022-08-24T09:53:19.781Z,28.60
2022-08-24T09:56:40.026Z,28.61
2022-08-24T09:59:53.969Z,28.64
2022-08-24T10:03:01.847Z,28.61
2022-08-24T10:06:22.548Z,28.63
2022-08-24T10:09:45.746Z,28.65
2022-08-24T10:13:12.435Z,28.74
2022-08-24T10:16:14.939Z,28.68
2022-08-24T10:19:58.844Z,28.69
2022-08-24T10:23:19.506Z,28.68
2022-08-24T10:26:46.051Z,28.84
2022-08-24T10:30:27.808Z,28.85
2022-08-24T10:33:39.489Z,28.76
2022-08-24T10:36:56.774Z,28.83
2022-08-24T10:40:19.472Z,28.78
2022-08-24T10:43:36.715Z,28.82
2022-08-24T10:46:53.514Z,28.92
2022-08-24T10:50:39.557Z,28.99
2022-08-24T10:53:49.278Z,29.05
2022-08-24T10:57:12.270Z,29.08
2022-08-24T11:00:22.948Z,29.11
2022-08-24T11:03:28.023Z,29.13
2022-08-24T11:06:36.388Z,29.14
2022-08-24T11:09:53.472Z,29.26
2022-08-24T11:12:56.227Z,29.27
2022-08-24T11:16:01.907Z,29.26
2022-08-24T11:19:13.302Z,29.29
2022-08-24T11:22:58.543Z,29.22
2022-08-24T11:26:12.918Z,29.30
2022-08-24T11:29:15.117Z,29.31
2022-08-24T11:32:46.486Z,29.41
2022-08-24T11:35:48.627Z,29.43
2022-08-24T11:39:23.996Z,29.40
2022-08-24T11:42:42.214Z,29.38
2022-08-24T11:46:02.831Z,29.45
2022-08-24T11:49:47.041Z,29.50
2022-08-24T11:53:12.519Z,29.56
2022-08-24T11:56:21.546Z,29.48
2022-08-24T12:00:05.742Z,29.63
2022-08-24T12:03:44.520Z,29.58
2022-08-24T12:07:11.570Z,29.51
2022-08-24T12:10:38.345Z,29.50
2022-08-24T12:14:18.598Z,29.38
2022-08-24T12:17:23.782Z,29.60
2022-08-24T12:20:43.608Z,29.55
2022-08-24T12:23:54.724Z,29.69
2022-08-24T12:27:04.011Z,29.75
2022-08-24T12:30:13.700Z,29.78
2022-08-24T12:33:18.864Z,29.76
2022-08-24T12:36:51.692Z,29.58
2022-08-24T12:40:13.998Z,29.72
2022-08-24T12:43:31.481Z,29.70
2022-08-24T12:46:34.852Z,29.72
2022-08-24T12:49:50.822Z,29.67
2022-08-24T12:53:14.658Z,29.63
2022-08-24T12:56:50.224Z,29.70
2022-08-24T12:59:57.521Z,29.70
2022-08-24T13:03:04.895Z,29.81
2022-08-24T13:06:11.925Z,29.83
2022-08-24T13:09:37.084Z,29.85
2022-08-24T13:12:42.338Z,29.95
2022-08-24T13:15:54.479Z,30.11
2022-08-24T13:19:32.090Z,30.10
2022-08-24T13:22:46.773Z,30.13
2022-08-24T13:25:52.011Z,30.25
2022-08-24T13:28:56.861Z,30.25
2022-08-24T13:32:00.430Z,30.27
2022-08-24T13:35:37.267Z,30.13
2022-08-24T13:39:13.461Z,30.01
2022-08-24T13:42:23.538Z,29.93
2022-08-24T13:45:52.705Z,29.89
2022-08-24T13:49:04.782Z,29.90
2022-08-24T13:52:45.367Z,29.87
2022-08-24T13:55:47.480Z,29.80
2022-08-24T13:59:05.411Z,29.73
2022-08-24T14:02:14.871Z,29.62
2022-08-24T14:05:45.869Z,29.51
2022-08-24T14:09:11.537Z,29.37
2022-08-24T14:12:45.824Z,29.37
2022-08-24T14:16:18.541Z,29.29
2022-08-24T14:19:47.422Z,29.17
2022-08-24T14:23:11.420Z,29.11
2022-08-24T14:26:37.042Z,29.13
2022-08-24T14:29:41.986Z,29.11
2022-08-24T14:33:08.265Z,29.19
2022-08-24T14:36:24.834Z,29.20
2022-08-24T14:39:39.023Z,29.24
2022-08-24T14:43:03.877Z,29.17
2022-08-24T14:46:21.095Z,29.26
2022-08-24T14:49:39.135Z,29.26
2022-08-24T14:52:51.208Z,29.23
2022-08-24T14:56:25.210Z,29.22
2022-08-24T14:59:38.234Z,29.22
2022-08-24T15:02:55.864Z,29.19
2022-08-24T15:06:26.234Z,29.15
2022-08-24T15:09:36.628Z,29.19
2022-08-24T15:12:44.293Z,29.02
2022-08-24T15:15:55.869Z,29.09
2022-08-24T15:19:06.595Z,29.08
2022-08-24T15:22:21.994Z,28.96
2022-08-24T15:25:37.076Z,28.97
2022-08-24T15:28:55.271Z,29.00
2022-08-24T15:32:07.695Z,28.99
2022-08-24T15:35:28.436Z,29.02
2022-08-24T15:38:30.467Z,29.02
2022-08-24T15:41:38.141Z,29.00
2022-08-24T15:44:43.848Z,28.94
2022-08-24T15:47:51.905Z,28.86
2022-08-24T15:50:55.991Z,28.90
2022-08-24T15:53:58.438Z,28.88
2022-08-24T15:57:18.680Z,28.88
2022-08-24T16:00:55.942Z,28.76
2022-08-24T16:04:01.257Z,28.77
2022-08-24T16:07:03.615Z,28.79
2022-08-24T16:10:12.408Z,28.74
2022-08-24T16:13:20.930Z,28.76
2022-08-24T16:16:33.594Z,28.74
2022-08-24T16:19:35.699Z,28.70
2022-08-24T16:22:58.469Z,28.64
2022-08-24T16:26:22.552Z,28.62
2022-08-24T16:29:41.445Z,28.58
2022-08-24T16:32:57.933Z,28.54
2022-08-24T16:36:03.917Z,28.46
2022-08-24T16:39:06.167Z,28.39
2022-08-24T16:42:15.935Z,28.33
2022-08-24T16:45:21.813Z,28.29
2022-08-24T16:48:23.946Z,28.24
2022-08-24T16:51:26.245Z,28.24
2022-08-24T16:54:28.699Z,28.20
2022-08-24T16:57:36.522Z,28.15
2022-08-24T17:00:38.633Z,28.11
2022-08-24T17:03:41.081Z,28.10
2022-08-24T17:06:43.481Z,28.09
2022-08-24T17:09:47.333Z,28.07
2022-08-24T17:12:49.800Z,28.08
2022-08-24T17:15:53.823Z,28.07
2022-08-24T17:18:59.606Z,27.99
2022-08-24T17:22:01.794Z,27.97
2022-08-24T17:25:05.345Z,27.95
2022-08-24T17:28:10.559Z,27.90
2022-08-24T17:31:13.640Z,27.86
2022-08-24T17:34:16.379Z,27.81
2022-08-24T17:37:19.111Z,27.76
2022-08-24T17:40:25.124Z,27.75
2022-08-24T17:43:27.527Z,27.72
2022-08-24T17:46:29.819Z,27.69
2022-08-24T17:49:32.927Z,27.66
2022-08-24T17:52:35.051Z,27.55
2022-08-24T17:55:37.149Z,27.57
2022-08-24T17:58:59.346Z,27.59
2022-08-24T18:02:07.355Z,27.57
2022-08-24T18:05:12.229Z,27.54
2022-08-24T18:08:14.565Z,27.54
2022-08-24T18:11:16.919Z,27.48
2022-08-24T18:14:19.194Z,27.49
2022-08-24T18:17:39.033Z,27.47
2022-08-24T18:20:42.085Z,27.43
2022-08-24T18:23:44.381Z,27.40
2022-08-24T18:26:48.683Z,27.34
2022-08-24T18:29:54.839Z,27.29
2022-08-24T18:32:57.983Z,27.34
2022-08-24T18:36:00.213Z,27.21
2022-08-24T18:39:06.884Z,27.25
2022-08-24T18:42:11.028Z,27.26
2022-08-24T18:45:13.276Z,27.23
2022-08-24T18:48:15.651Z,27.15
2022-08-24T18:51:20.314Z,27.23
2022-08-24T18:54:26.544Z,27.23
2022-08-24T18:57:28.984Z,27.18
2022-08-24T19:00:31.620Z,27.21
2022-08-24T19:03:34.554Z,27.15
2022-08-24T19:06:36.670Z,27.15
2022-08-24T19:09:38.801Z,27.12
2022-08-24T19:12:47.033Z,27.16
2022-08-24T19:15:49.811Z,27.13
2022-08-24T19:18:52.344Z,27.14
2022-08-24T19:21:54.695Z,27.12
2022-08-24T19:24:58.602Z,27.12
2022-08-24T19:28:01.529Z,27.10
2022-08-24T19:31:07.516Z,27.05
2022-08-24T19:34:10.224Z,27.07
2022-08-24T19:37:15.533Z,27.07
2022-08-24T19:40:21.543Z,27.04
2022-08-24T19:43:28.715Z,26.98
2022-08-24T19:46:31.496Z,26.97
2022-08-24T19:49:34.574Z,26.98
2022-08-24T19:52:38.270Z,26.96
2022-08-24T19:55:40.499Z,26.99
2022-08-24T19:58:59.650Z,26.98
2022-08-24T20:02:01.848Z,26.91
2022-08-24T20:05:04.197Z,26.95
2022-08-24T20:08:06.400Z,26.89
2022-08-24T20:11:09.340Z,26.83
2022-08-24T20:14:11.371Z,26.77
2022-08-24T20:17:13.543Z,26.79
2022-08-24T20:20:19.864Z,26.74
2022-08-24T20:23:22.099Z,26.79
2022-08-24T20:26:29.768Z,26.75
2022-08-24T20:29:32.029Z,26.74
2022-08-24T20:32:34.403Z,26.75
2022-08-24T20:35:37.149Z,26.68
2022-08-24T20:38:40.513Z,26.73
2022-08-24T20:41:44.293Z,26.71
2022-08-24T20:44:46.370Z,26.65
2022-08-24T20:47:51.490Z,26.71
2022-08-24T20:50:54.019Z,26.63
2022-08-24T20:53:56.153Z,26.74
2022-08-24T20:56:58.859Z,26.73
2022-08-24T21:00:00.957Z,26.72
2022-08-24T21:03:03.283Z,26.62
2022-08-24T21:06:07.253Z,26.60
2022-08-24T21:09:14.062Z,26.60
2022-08-24T21:12:16.628Z,26.62
2022-08-24T21:15:19.149Z,26.49
2022-08-24T21:18:21.526Z,26.60
2022-08-24T21:21:23.652Z,26.56
2022-08-24T21:24:26.105Z,26.63
2022-08-24T21:27:28.347Z,26.60
2022-08-24T21:30:30.959Z,26.65
2022-08-24T21:33:55.808Z,26.62
2022-08-24T21:36:58.158Z,26.63
2022-08-24T21:40:02.198Z,26.64
2022-08-24T21:43:09.283Z,26.57
2022-08-24T21:46:18.038Z,26.51
2022-08-24T21:49:20.897Z,26.63
2022-08-24T21:52:23.283Z,26.62
2022-08-24T21:55:27.694Z,26.61
2022-08-24T21:58:29.977Z,26.57
2022-08-24T22:01:32.737Z,26.62
2022-08-24T22:04:34.945Z,26.55
2022-08-24T22:07:37.718Z,26.57
2022-08-24T22:10:39.784Z,26.54
2022-08-24T22:13:42.760Z,26.51
2022-08-24T22:16:45.491Z,26.46
2022-08-24T22:19:47.528Z,26.52
2022-08-24T22:22:49.574Z,26.52
2022-08-24T22:25:53.598Z,26.52
2022-08-24T22:28:56.882Z,26.49
2022-08-24T22:31:59.052Z,26.46
2022-08-24T22:35:01.159Z,26.45
2022-08-24T22:38:03.458Z,26.41
2022-08-24T22:41:08.003Z,26.44
2022-08-24T22:44:19.231Z,26.48
2022-08-24T22:47:21.297Z,26.44
2022-08-24T22:50:23.434Z,26.44
2022-08-24T22:53:25.872Z,26.40
2022-08-24T22:56:31.217Z,26.42
2022-08-24T22:59:40.101Z,26.37
2022-08-24T23:02:42.337Z,26.32
2022-08-24T23:05:44.646Z,26.37
2022-08-24T23:08:46.782Z,26.37
2022-08-24T23:11:48.995Z,26.38
2022-08-24T23:14:52.462Z,26.39
2022-08-24T23:17:54.606Z,26.39
2022-08-24T23:20:57.084Z,26.40
2022-08-24T23:23:59.210Z,26.38
2022-08-24T23:27:02.784Z,26.39
2022-08-24T23:30:07.766Z,26.34
2022-08-24T23:33:09.935Z,26.32
2022-08-24T23:36:16.123Z,26.27
2022-08-24T23:39:19.253Z,26.28
2022-08-24T23:42:21.395Z,26.28
2022-08-24T23:45:28.493Z,26.27
2022-08-24T23:48:33.527Z,26.25
2022-08-24T23:51:36.564Z,26.30
2022-08-24T23:54:38.711Z,26.28
2022-08-24T23:57:41.276Z,26.17
